createdAt,value
2019-03-24T00:00:11.471Z,10.95
2019-03-24T00:02:40.327Z,12.53
2019-03-24T00:05:09.270Z,10.72
2019-03-24T00:07:38.198Z,12.03
2019-03-24T00:10:07.852Z,10.50
2019-03-24T00:12:36.697Z,10.43
2019-03-24T00:15:07.571Z,10.43
2019-03-24T00:17:36.428Z,9.33
2019-03-24T00:20:10.213Z,10.70
2019-03-24T00:22:39.024Z,10.58
2019-03-24T00:25:08.668Z,10.38
2019-03-24T00:27:37.525Z,10.68
2019-03-24T00:30:08.419Z,10.68
2019-03-24T00:32:37.268Z,10.25
2019-03-24T00:35:07.338Z,9.38
2019-03-24T00:37:36.296Z,9.03
2019-03-24T00:40:07.496Z,8.65
2019-03-24T00:42:36.344Z,8.18
2019-03-24T00:45:07.403Z,8.85
2019-03-24T00:47:36.240Z,8.78
2019-03-24T00:50:06.992Z,8.53
2019-03-24T00:52:35.906Z,9.15
2019-03-24T00:55:08.541Z,7.92
2019-03-24T00:57:37.721Z,7.62
2019-03-24T01:00:11.220Z,8.85
2019-03-24T01:02:40.063Z,9.73
2019-03-24T01:05:09.407Z,9.48
2019-03-24T01:07:38.320Z,9.90
2019-03-24T01:10:08.476Z,8.50
2019-03-24T01:12:37.322Z,9.93
2019-03-24T01:15:06.938Z,9.08
2019-03-24T01:17:36.288Z,8.10
2019-03-24T01:20:07.034Z,7.58
2019-03-24T01:22:36.045Z,6.42
2019-03-24T01:25:05.314Z,7.30
2019-03-24T01:27:34.149Z,6.70
2019-03-24T01:30:03.048Z,5.22
2019-03-24T01:32:33.172Z,5.35
2019-03-24T01:35:02.048Z,5.53
2019-03-24T01:37:30.892Z,4.58
2019-03-24T01:39:59.735Z,4.72
2019-03-24T01:42:28.665Z,5.20
2019-03-24T01:44:57.508Z,4.42
2019-03-24T01:47:27.267Z,4.70
2019-03-24T01:49:56.168Z,3.95
2019-03-24T01:52:25.008Z,4.10
2019-03-24T01:54:53.853Z,3.83
2019-03-24T01:57:22.757Z,4.87
2019-03-24T01:59:51.609Z,4.70
2019-03-24T02:02:20.447Z,4.40
2019-03-24T02:04:49.356Z,4.15
2019-03-24T02:07:19.676Z,4.25
2019-03-24T02:09:48.527Z,3.17
2019-03-24T02:12:17.440Z,3.02
2019-03-24T02:14:46.285Z,3.58
2019-03-24T02:17:15.128Z,4.12
2019-03-24T02:19:44.055Z,4.75
2019-03-24T02:22:12.908Z,6.28
2019-03-24T02:24:42.357Z,4.72
2019-03-24T02:27:11.288Z,5.15
2019-03-24T02:29:40.175Z,5.25
2019-03-24T02:32:08.977Z,4.37
2019-03-24T02:34:37.926Z,3.15
2019-03-24T02:37:06.752Z,3.02
2019-03-24T02:39:35.604Z,2.40
2019-03-24T02:42:04.550Z,2.40
2019-03-24T02:44:33.388Z,3.85
2019-03-24T02:47:02.245Z,3.37
2019-03-24T02:49:31.212Z,2.80
2019-03-24T02:52:00.049Z,2.77
2019-03-24T02:54:28.896Z,2.80
2019-03-24T02:56:57.821Z,2.87
2019-03-24T02:59:26.668Z,2.77
2019-03-24T03:01:55.508Z,2.75
2019-03-24T03:04:24.377Z,3.40
2019-03-24T03:06:53.226Z,3.10
2019-03-24T03:09:22.071Z,2.72
2019-03-24T03:11:50.942Z,2.92
2019-03-24T03:14:19.789Z,3.95
2019-03-24T03:16:48.646Z,3.42
2019-03-24T03:19:18.452Z,3.55
2019-03-24T03:21:47.306Z,3.10
2019-03-24T03:24:16.188Z,2.98
2019-03-24T03:26:45.064Z,2.33
2019-03-24T03:29:13.906Z,2.52
2019-03-24T03:31:42.745Z,2.72
2019-03-24T03:34:11.627Z,3.20
2019-03-24T03:36:40.496Z,3.52
2019-03-24T03:39:09.422Z,4.15
2019-03-24T03:41:38.411Z,3.80
2019-03-24T03:44:07.358Z,4.75
2019-03-24T03:46:36.303Z,4.22
2019-03-24T03:49:05.248Z,3.00
2019-03-24T03:51:35.073Z,3.80
2019-03-24T03:54:03.911Z,3.62
2019-03-24T03:56:32.818Z,4.62
2019-03-24T03:59:01.633Z,4.67
2019-03-24T04:01:30.475Z,4.30
2019-03-24T04:03:59.346Z,3.70
2019-03-24T04:06:28.196Z,3.70
2019-03-24T04:08:57.052Z,3.55
2019-03-24T04:11:25.929Z,2.60
2019-03-24T04:13:54.770Z,3.40
2019-03-24T04:16:23.616Z,3.00
2019-03-24T04:18:52.464Z,3.05
2019-03-24T04:21:21.308Z,2.45
2019-03-24T04:23:50.177Z,2.60
2019-03-24T04:26:19.035Z,3.45
2019-03-24T04:28:47.887Z,3.75
2019-03-24T04:31:16.765Z,4.55
2019-03-24T04:33:45.604Z,5.10
2019-03-24T04:36:14.459Z,5.58
2019-03-24T04:38:43.341Z,5.62
2019-03-24T04:41:12.198Z,5.80
2019-03-24T04:43:41.053Z,5.15
2019-03-24T04:46:09.913Z,5.65
2019-03-24T04:48:38.753Z,5.97
2019-03-24T04:51:07.634Z,4.30
2019-03-24T04:53:37.365Z,4.80
2019-03-24T04:56:06.222Z,5.00
2019-03-24T04:58:35.062Z,5.58
2019-03-24T05:01:03.909Z,6.03
2019-03-24T05:03:32.829Z,7.12
2019-03-24T05:06:01.675Z,7.62
2019-03-24T05:08:31.016Z,8.88
2019-03-24T05:10:59.870Z,6.12
2019-03-24T05:13:28.715Z,4.62
2019-03-24T05:15:57.592Z,3.50
2019-03-24T05:18:29.433Z,3.37
2019-03-24T05:20:58.272Z,2.83
2019-03-24T05:23:27.120Z,2.90
2019-03-24T05:25:55.969Z,3.05
2019-03-24T05:28:24.888Z,2.87
2019-03-24T05:30:53.733Z,3.08
2019-03-24T05:33:22.584Z,4.25
2019-03-24T05:35:51.497Z,3.58
2019-03-24T05:38:20.348Z,6.20
2019-03-24T05:40:49.197Z,3.77
2019-03-24T05:43:18.079Z,3.33
2019-03-24T05:45:46.924Z,7.67
2019-03-24T05:48:15.789Z,3.95
2019-03-24T05:50:44.627Z,5.62
2019-03-24T05:53:13.476Z,5.35
2019-03-24T05:55:43.315Z,4.47
2019-03-24T05:58:12.167Z,3.95
2019-03-24T06:00:41.043Z,4.80
2019-03-24T06:03:09.884Z,3.72
2019-03-24T06:05:38.725Z,5.08
2019-03-24T06:08:07.620Z,4.10
2019-03-24T06:10:36.471Z,4.10
2019-03-24T06:13:05.319Z,5.03
2019-03-24T06:15:34.195Z,2.85
2019-03-24T06:18:03.056Z,1.95
2019-03-24T06:20:31.944Z,4.40
2019-03-24T06:23:00.787Z,4.45
2019-03-24T06:25:29.656Z,4.65
2019-03-24T06:27:58.513Z,4.80
2019-03-24T06:30:27.356Z,3.70
2019-03-24T06:32:56.299Z,4.58
2019-03-24T06:35:25.163Z,3.40
2019-03-24T06:37:53.995Z,5.83
2019-03-24T06:40:28.740Z,5.45
2019-03-24T06:42:57.584Z,4.58
2019-03-24T06:45:28.600Z,4.30
2019-03-24T06:47:58.450Z,5.75
2019-03-24T06:50:27.329Z,5.03
2019-03-24T06:52:56.211Z,4.30
2019-03-24T06:55:25.056Z,4.30
2019-03-24T06:57:54.878Z,5.55
2019-03-24T07:00:23.762Z,4.20
2019-03-24T07:02:52.617Z,5.78
2019-03-24T07:05:21.490Z,4.12
2019-03-24T07:07:50.511Z,3.05
2019-03-24T07:10:19.369Z,2.58
2019-03-24T07:12:48.222Z,3.75
2019-03-24T07:15:17.235Z,2.62
2019-03-24T07:17:48.782Z,4.87
2019-03-24T07:20:17.635Z,3.50
2019-03-24T07:22:46.739Z,3.58
2019-03-24T07:25:15.617Z,4.50
2019-03-24T07:27:44.436Z,3.98
2019-03-24T07:30:13.500Z,5.03
2019-03-24T07:32:42.350Z,6.00
2019-03-24T07:35:11.200Z,7.90
2019-03-24T07:37:40.076Z,4.20
2019-03-24T07:40:09.721Z,5.45
2019-03-24T07:42:38.570Z,5.20
2019-03-24T07:45:09.125Z,3.87
2019-03-24T07:47:37.984Z,3.75
2019-03-24T07:50:08.621Z,5.58
2019-03-24T07:52:37.511Z,3.62
2019-03-24T07:55:07.663Z,3.05
2019-03-24T07:57:36.517Z,2.47
2019-03-24T08:00:08.250Z,3.17
2019-03-24T08:02:37.139Z,3.60
2019-03-24T08:05:06.575Z,2.67
2019-03-24T08:07:35.433Z,2.12
2019-03-24T08:10:05.884Z,2.77
2019-03-24T08:12:34.736Z,2.72
2019-03-24T08:15:04.161Z,2.15
2019-03-24T08:17:33.008Z,1.90
2019-03-24T08:20:01.849Z,2.00
2019-03-24T08:22:30.741Z,2.05
2019-03-24T08:24:59.594Z,2.12
2019-03-24T08:27:28.448Z,1.95
2019-03-24T08:29:57.323Z,1.90
2019-03-24T08:32:26.169Z,1.70
2019-03-24T08:34:55.018Z,1.70
2019-03-24T08:37:23.928Z,1.85
2019-03-24T08:39:52.753Z,1.90
2019-03-24T08:42:21.604Z,2.40
2019-03-24T08:44:50.601Z,2.05
2019-03-24T08:47:19.444Z,2.55
2019-03-24T08:49:48.296Z,5.97
2019-03-24T08:52:19.167Z,5.50
2019-03-24T08:54:48.025Z,4.90
2019-03-24T08:57:16.889Z,4.97
2019-03-24T08:59:45.779Z,3.98
2019-03-24T09:02:15.512Z,7.60
2019-03-24T09:04:44.356Z,6.80
2019-03-24T09:07:13.244Z,8.30
2019-03-24T09:09:42.112Z,10.80
2019-03-24T09:12:10.976Z,11.85
2019-03-24T09:14:39.874Z,7.80
2019-03-24T09:17:08.708Z,8.78
2019-03-24T09:19:38.608Z,7.00
2019-03-24T09:22:07.512Z,3.70
2019-03-24T09:24:36.368Z,4.92
2019-03-24T09:27:05.237Z,3.62
2019-03-24T09:29:34.129Z,4.10
2019-03-24T09:32:02.971Z,6.70
2019-03-24T09:34:31.822Z,4.70
2019-03-24T09:37:00.718Z,5.80
2019-03-24T09:39:29.561Z,6.80
2019-03-24T09:41:58.413Z,4.87
2019-03-24T09:44:27.289Z,4.75
2019-03-24T09:46:56.150Z,3.85
2019-03-24T09:49:25.000Z,6.78
2019-03-24T09:51:53.876Z,7.15
2019-03-24T09:54:22.736Z,5.05
2019-03-24T09:56:51.584Z,4.12
2019-03-24T09:59:20.459Z,11.08
2019-03-24T10:01:49.314Z,3.85
2019-03-24T10:04:19.075Z,3.72
2019-03-24T10:06:47.956Z,10.00
2019-03-24T10:09:16.811Z,10.90
2019-03-24T10:11:45.665Z,19.17
2019-03-24T10:14:14.540Z,3.60
2019-03-24T10:16:43.396Z,5.05
2019-03-24T10:19:14.323Z,3.70
2019-03-24T10:21:42.783Z,7.25
2019-03-24T10:24:11.624Z,6.95
2019-03-24T10:26:40.470Z,10.75
2019-03-24T10:29:09.439Z,13.53
2019-03-24T10:31:38.301Z,8.60
2019-03-24T10:34:07.137Z,8.75
2019-03-24T10:36:36.023Z,7.92
2019-03-24T10:39:05.567Z,8.68
2019-03-24T10:41:34.420Z,7.12
2019-03-24T10:44:03.340Z,19.10
2019-03-24T10:46:32.253Z,10.53
2019-03-24T10:49:01.096Z,15.30
2019-03-24T10:51:29.968Z,19.00
2019-03-24T10:53:58.812Z,19.02
2019-03-24T10:56:27.652Z,9.38
2019-03-24T10:58:56.529Z,6.85
2019-03-24T11:01:25.385Z,9.35
2019-03-24T11:03:54.233Z,9.33
2019-03-24T11:06:24.087Z,9.20
2019-03-24T11:08:52.931Z,8.10
2019-03-24T11:11:21.764Z,7.00
2019-03-24T11:13:50.612Z,3.15
2019-03-24T11:16:19.459Z,4.28
2019-03-24T11:18:48.360Z,5.40
2019-03-24T11:21:17.301Z,3.02
2019-03-24T11:23:46.156Z,1.90
2019-03-24T11:26:15.027Z,2.55
2019-03-24T11:28:43.890Z,2.05
2019-03-24T11:31:12.801Z,1.52
2019-03-24T11:33:41.652Z,1.80
2019-03-24T11:36:10.495Z,1.57
2019-03-24T11:38:39.345Z,1.60
2019-03-24T11:41:08.188Z,1.52
2019-03-24T11:43:37.064Z,2.05
2019-03-24T11:46:05.929Z,2.87
2019-03-24T11:48:34.821Z,1.70
2019-03-24T11:51:03.667Z,2.33
2019-03-24T11:53:32.539Z,3.75
2019-03-24T11:56:01.432Z,5.58
2019-03-24T11:58:30.301Z,8.03
2019-03-24T12:00:59.236Z,7.00
2019-03-24T12:03:28.090Z,7.50
2019-03-24T12:05:56.931Z,4.45
2019-03-24T12:08:25.915Z,5.08
2019-03-24T12:10:54.720Z,10.55
2019-03-24T12:13:23.580Z,7.15
2019-03-24T12:15:52.457Z,4.85
2019-03-24T12:18:21.315Z,6.05
2019-03-24T12:20:50.184Z,8.98
2019-03-24T12:23:21.007Z,5.75
2019-03-24T12:25:49.912Z,7.08
2019-03-24T12:28:18.946Z,4.00
2019-03-24T12:30:49.258Z,2.15
2019-03-24T12:33:18.172Z,2.40
2019-03-24T12:35:47.036Z,1.50
2019-03-24T12:38:16.082Z,1.60
2019-03-24T12:40:44.955Z,1.40
2019-03-24T12:43:19.382Z,1.70
2019-03-24T12:45:44.354Z,1.45
2019-03-24T12:48:13.191Z,2.33
2019-03-24T12:50:42.261Z,1.90
2019-03-24T12:53:12.448Z,1.82
2019-03-24T12:55:43.171Z,1.82
2019-03-24T12:58:12.137Z,1.75
2019-03-24T13:00:41.049Z,2.35
2019-03-24T13:03:09.906Z,9.20
2019-03-24T13:05:38.752Z,2.37
2019-03-24T13:08:16.662Z,2.83
2019-03-24T13:10:47.502Z,2.35
2019-03-24T13:13:16.459Z,2.37
2019-03-24T13:15:45.304Z,25.08
2019-03-24T13:18:14.200Z,19.48
2019-03-24T13:20:43.067Z,36.70
2019-03-24T13:23:11.913Z,44.55
2019-03-24T13:25:40.813Z,52.30
2019-03-24T13:28:09.660Z,3.30
2019-03-24T13:30:38.498Z,4.53
2019-03-24T13:33:07.369Z,6.58
2019-03-24T13:35:36.225Z,4.65
2019-03-24T13:38:05.113Z,2.10
2019-03-24T13:40:35.505Z,6.78
2019-03-24T13:43:04.373Z,2.12
2019-03-24T13:45:33.213Z,1.67
2019-03-24T15:14:07.160Z,9.45
2019-03-24T15:16:36.012Z,9.95
2019-03-24T15:19:04.864Z,16.65
2019-03-24T15:21:33.784Z,8.60
2019-03-24T15:24:02.631Z,18.25
2019-03-24T15:26:31.489Z,7.85
2019-03-24T15:29:00.442Z,9.48
2019-03-24T15:31:29.289Z,10.70
2019-03-24T15:33:58.132Z,8.35
2019-03-24T15:36:27.079Z,18.45
2019-03-24T15:38:55.928Z,15.85
2019-03-24T15:41:24.771Z,14.23
2019-03-24T15:43:53.692Z,30.77
2019-03-24T15:46:22.528Z,13.58
2019-03-24T15:48:52.080Z,15.78
2019-03-24T15:51:21.006Z,10.65
2019-03-24T15:53:50.547Z,14.47
2019-03-24T15:56:19.403Z,22.15
2019-03-24T15:58:48.333Z,15.28
2019-03-24T16:01:17.183Z,14.68
2019-03-24T16:03:46.136Z,11.33
2019-03-24T16:06:15.489Z,15.15
2019-03-24T16:08:44.326Z,15.83
2019-03-24T16:11:13.202Z,10.78
2019-03-24T16:13:42.128Z,13.70
2019-03-24T16:16:10.977Z,10.82
2019-03-24T16:18:39.833Z,13.53
2019-03-24T16:21:27.094Z,15.85
2019-03-24T16:23:47.528Z,14.15
2019-03-24T16:26:19.215Z,14.68
2019-03-24T16:28:48.073Z,14.38
2019-03-24T16:31:16.932Z,11.22
2019-03-24T16:33:45.796Z,21.77
2019-03-24T16:36:14.652Z,29.72
2019-03-24T16:38:49.178Z,26.33
2019-03-24T16:41:15.652Z,33.10
2019-03-24T16:43:44.504Z,33.38
2019-03-24T16:46:13.369Z,33.60
2019-03-24T16:48:42.220Z,26.80
2019-03-24T16:51:11.151Z,25.05
2019-03-24T16:53:40.000Z,27.45
2019-03-24T16:56:08.869Z,27.98
2019-03-24T16:58:37.716Z,30.17
2019-03-24T17:01:06.721Z,28.27
2019-03-24T17:03:35.636Z,33.92
2019-03-24T17:06:04.669Z,33.53
2019-03-24T17:08:35.172Z,31.17
2019-03-24T17:11:04.348Z,19.77
2019-03-24T17:13:33.195Z,24.37
2019-03-24T17:16:02.130Z,17.48
2019-03-24T17:18:30.986Z,16.73
2019-03-24T17:21:01.420Z,37.03
2019-03-24T17:23:30.389Z,41.50
2019-03-24T17:25:59.277Z,25.10
2019-03-24T17:28:28.202Z,28.95
2019-03-24T17:30:57.680Z,19.15
2019-03-24T17:33:26.540Z,21.55
2019-03-24T17:35:55.508Z,19.70
2019-03-24T17:38:24.365Z,19.67
2019-03-24T17:40:58.901Z,14.95
2019-03-24T17:43:27.755Z,11.53
2019-03-24T17:45:59.669Z,11.18
2019-03-24T17:48:28.523Z,10.40
2019-03-24T17:50:57.373Z,10.05
2019-03-24T17:53:26.302Z,9.28
2019-03-24T17:55:59.476Z,9.83
2019-03-24T17:58:35.159Z,8.20
2019-03-24T18:01:04.236Z,14.40
2019-03-24T18:03:33.169Z,11.90
2019-03-24T18:06:02.020Z,12.43
2019-03-24T18:08:30.864Z,11.15
2019-03-24T18:10:59.822Z,8.65
2019-03-24T18:13:28.670Z,7.42
2019-03-24T18:15:57.642Z,5.45
2019-03-24T18:18:26.514Z,10.15
2019-03-24T18:20:55.324Z,29.52
2019-03-24T18:23:24.797Z,30.97
2019-03-24T18:25:53.930Z,18.95
2019-03-24T18:28:22.836Z,17.32
2019-03-24T18:30:51.658Z,13.93
2019-03-24T18:33:22.036Z,9.20
2019-03-24T18:35:50.985Z,9.33
2019-03-24T18:38:19.832Z,11.75
2019-03-24T18:40:48.733Z,12.68
2019-03-24T18:43:17.594Z,15.45
2019-03-24T18:45:46.453Z,11.03
2019-03-24T18:48:16.857Z,15.93
2019-03-24T18:50:45.706Z,8.55
2019-03-24T18:53:16.187Z,6.58
2019-03-24T18:55:45.068Z,5.28
2019-03-24T18:58:13.911Z,5.58
2019-03-24T19:00:42.839Z,4.40
2019-03-24T19:03:11.716Z,3.15
2019-03-24T19:05:40.524Z,4.75
2019-03-24T19:08:09.752Z,4.60
2019-03-24T19:10:39.468Z,3.72
2019-03-24T19:13:08.365Z,3.72
2019-03-24T19:15:37.612Z,3.62
2019-03-24T19:18:06.771Z,4.83
2019-03-24T19:20:35.668Z,6.22
2019-03-24T19:23:05.176Z,4.20
2019-03-24T19:25:34.063Z,4.80
2019-03-24T19:28:02.994Z,3.90
2019-03-24T19:30:39.400Z,4.75
2019-03-24T19:33:08.465Z,3.92
2019-03-24T19:35:37.420Z,3.95
2019-03-24T19:38:06.375Z,3.47
2019-03-24T19:40:35.429Z,3.60
2019-03-24T19:43:04.276Z,3.50
2019-03-24T19:45:33.144Z,3.70
2019-03-24T19:48:02.750Z,3.47
2019-03-24T19:50:31.605Z,3.62
2019-03-24T19:53:00.444Z,5.17
2019-03-24T19:55:29.697Z,4.90
2019-03-24T19:57:58.552Z,3.92
2019-03-24T20:00:27.436Z,4.00
2019-03-24T20:03:02.852Z,4.20
2019-03-24T20:05:31.693Z,5.33
2019-03-24T20:08:00.609Z,7.58
2019-03-24T20:10:29.492Z,4.83
2019-03-24T20:12:58.325Z,3.98
2019-03-24T20:15:27.237Z,3.60
2019-03-24T20:17:56.118Z,4.17
2019-03-24T20:20:25.036Z,3.90
2019-03-24T20:22:56.737Z,4.55
2019-03-24T20:25:24.371Z,3.70
2019-03-24T20:27:55.982Z,3.35
2019-03-24T20:30:25.093Z,3.55
2019-03-24T20:32:56.479Z,4.12
2019-03-24T20:35:25.318Z,4.33
2019-03-24T20:37:54.203Z,4.55
2019-03-24T20:40:27.552Z,4.35
2019-03-24T20:42:56.393Z,3.42
2019-03-24T20:45:25.334Z,4.37
2019-03-24T20:47:54.156Z,4.45
2019-03-24T20:50:23.044Z,3.60
2019-03-24T20:53:03.377Z,3.77
2019-03-24T20:55:22.384Z,3.30
2019-03-24T20:57:52.335Z,3.72
2019-03-24T21:00:27.649Z,3.67
2019-03-24T21:02:56.582Z,3.60
2019-03-24T21:05:25.434Z,2.80
2019-03-24T21:07:54.285Z,3.33
2019-03-24T21:10:24.175Z,3.35
2019-03-24T21:12:53.176Z,3.25
2019-03-24T21:15:22.484Z,3.02
2019-03-24T21:17:51.333Z,2.55
2019-03-24T21:20:20.178Z,3.35
2019-03-24T21:22:49.029Z,3.20
2019-03-24T21:25:17.883Z,2.62
2019-03-24T21:27:46.809Z,2.75
2019-03-24T21:30:16.251Z,2.60
2019-03-24T21:32:45.088Z,3.08
2019-03-24T21:35:14.139Z,3.47
2019-03-24T21:37:42.975Z,2.47
2019-03-24T21:40:12.001Z,3.10
2019-03-24T21:42:40.846Z,2.92
2019-03-24T21:45:09.996Z,3.90
2019-03-24T21:47:38.840Z,3.33
2019-03-24T21:50:08.508Z,3.10
2019-03-24T21:52:37.352Z,3.95
2019-03-24T21:55:06.894Z,3.35
2019-03-24T21:57:35.832Z,3.35
2019-03-24T22:00:07.600Z,3.45
2019-03-24T22:02:36.519Z,3.95
2019-03-24T22:05:06.060Z,3.30
2019-03-24T22:07:34.899Z,4.50
2019-03-24T22:10:04.920Z,3.05
2019-03-24T22:12:33.712Z,5.85
2019-03-24T22:15:02.560Z,7.00
2019-03-24T22:17:31.433Z,6.37
2019-03-24T22:20:00.341Z,4.05
2019-03-24T22:22:29.216Z,3.62
2019-03-24T22:24:58.090Z,2.85
2019-03-24T22:27:27.053Z,3.30
2019-03-24T22:29:56.045Z,3.25
2019-03-24T22:32:25.018Z,3.35
2019-03-24T22:34:54.031Z,3.72
2019-03-24T22:37:23.024Z,2.92
2019-03-24T22:39:52.018Z,3.87
2019-03-24T22:42:21.015Z,3.70
2019-03-24T22:44:50.004Z,4.40
2019-03-24T22:47:18.997Z,4.20
2019-03-24T22:49:47.828Z,5.20
2019-03-24T22:52:16.695Z,4.55
2019-03-24T22:54:45.562Z,3.72
2019-03-24T22:57:14.416Z,3.70
2019-03-24T22:59:43.266Z,3.58
2019-03-24T23:02:12.163Z,3.90
2019-03-24T23:04:41.010Z,4.53
2019-03-24T23:07:09.860Z,4.35
2019-03-24T23:09:38.736Z,4.90
2019-03-24T23:12:07.580Z,3.65
2019-03-24T23:14:36.429Z,5.15
2019-03-24T23:17:05.295Z,4.50
2019-03-24T23:19:34.140Z,4.33
2019-03-24T23:22:22.260Z,4.25
2019-03-24T23:24:51.201Z,4.25
2019-03-24T23:27:20.144Z,4.00
2019-03-24T23:29:48.986Z,5.53
2019-03-24T23:32:17.830Z,4.47
2019-03-24T23:34:46.680Z,4.22
2019-03-24T23:37:15.525Z,3.85
2019-03-24T23:39:44.443Z,4.17
2019-03-24T23:42:13.438Z,3.67
2019-03-24T23:44:42.431Z,4.15
2019-03-24T23:47:11.423Z,3.98
2019-03-24T23:49:40.248Z,3.65
2019-03-24T23:52:09.206Z,5.03
2019-03-24T23:54:38.092Z,4.47
2019-03-24T23:57:07.088Z,4.20
2019-03-24T23:59:35.956Z,5.35
